createdAt,value
2016-10-01T00:00:12.141Z,21.90
2016-10-01T00:01:11.433Z,21.90
2016-10-01T00:02:12.082Z,21.90
2016-10-01T00:03:14.662Z,21.90
2016-10-01T00:04:11.974Z,21.90
2016-10-01T00:05:12.176Z,21.90
2016-10-01T00:06:12.325Z,21.90
2016-10-01T00:07:11.771Z,21.90
2016-10-01T00:08:12.843Z,21.90
2016-10-01T00:09:12.773Z,21.90
2016-10-01T00:10:12.615Z,21.90
2016-10-01T00:11:12.453Z,21.90
2016-10-01T00:12:12.082Z,21.90
2016-10-01T00:13:11.941Z,21.90
2016-10-01T00:14:12.338Z,21.90
2016-10-01T00:15:12.168Z,21.90
2016-10-01T00:16:13.263Z,21.90
2016-10-01T00:17:12.344Z,21.90
2016-10-01T00:18:11.867Z,21.90
2016-10-01T00:19:12.275Z,21.90
2016-10-01T00:20:11.685Z,21.90
2016-10-01T00:21:11.949Z,21.90
2016-10-01T00:22:12.457Z,21.90
2016-10-01T00:23:13.781Z,21.90
2016-10-01T00:24:12.926Z,21.90
2016-10-01T00:25:12.226Z,21.90
2016-10-01T00:26:14.302Z,21.90
2016-10-01T00:27:12.382Z,21.90
2016-10-01T00:28:14.629Z,21.90
2016-10-01T00:29:12.066Z,21.90
2016-10-01T00:30:13.148Z,21.90
2016-10-01T00:31:14.090Z,21.90
2016-10-01T00:32:12.519Z,21.90
2016-10-01T00:33:12.524Z,21.90
2016-10-01T00:34:12.952Z,21.90
2016-10-01T00:35:12.065Z,21.90
2016-10-01T00:36:11.405Z,21.90
2016-10-01T00:37:12.068Z,21.90
2016-10-01T00:38:08.881Z,21.90
2016-10-01T00:39:13.553Z,21.90
2016-10-01T00:40:12.092Z,21.90
2016-10-01T00:41:11.472Z,21.90
2016-10-01T00:42:12.066Z,21.90
2016-10-01T00:43:11.443Z,21.90
2016-10-01T00:44:12.200Z,21.90
2016-10-01T00:45:12.330Z,21.90
2016-10-01T00:46:12.336Z,21.90
2016-10-01T00:47:12.232Z,21.90
2016-10-01T00:48:11.794Z,21.90
2016-10-01T00:49:12.832Z,21.90
2016-10-01T00:50:12.881Z,21.90
2016-10-01T00:51:12.995Z,21.90
2016-10-01T00:52:12.926Z,21.90
2016-10-01T00:53:10.772Z,21.90
2016-10-01T00:54:12.393Z,21.90
2016-10-01T00:55:13.392Z,21.90
2016-10-01T00:56:11.785Z,21.90
2016-10-01T00:57:13.935Z,21.90
2016-10-01T00:58:12.577Z,21.90
2016-10-01T00:59:11.931Z,21.90
2016-10-01T01:00:13.337Z,21.90
2016-10-01T01:01:10.504Z,21.90
2016-10-01T01:02:12.685Z,21.90
2016-10-01T01:03:14.810Z,21.90
2016-10-01T01:04:13.386Z,21.90
2016-10-01T01:05:12.055Z,21.90
2016-10-01T01:06:12.525Z,21.90
2016-10-01T01:07:12.635Z,21.90
2016-10-01T01:08:12.586Z,21.90
2016-10-01T01:09:13.872Z,21.90
2016-10-01T01:10:13.398Z,21.90
2016-10-01T01:11:14.113Z,21.90
2016-10-01T01:12:13.942Z,21.90
2016-10-01T01:13:14.600Z,21.90
2016-10-01T01:14:13.611Z,21.90
2016-10-01T01:15:12.930Z,21.90
2016-10-01T01:16:13.156Z,21.90
2016-10-01T01:17:10.549Z,21.90
2016-10-01T01:18:13.024Z,21.90
2016-10-01T01:19:14.006Z,21.90
2016-10-01T01:20:16.733Z,21.90
2016-10-01T01:21:14.389Z,21.90
2016-10-01T01:22:15.287Z,21.90
2016-10-01T01:23:09.730Z,21.90
2016-10-01T01:24:13.051Z,21.90
2016-10-01T01:25:13.867Z,21.90
2016-10-01T01:26:13.614Z,21.90
2016-10-01T01:27:13.168Z,21.90
2016-10-01T01:28:11.634Z,21.90
2016-10-01T01:29:12.098Z,21.90
2016-10-01T01:30:11.802Z,21.90
2016-10-01T01:31:11.804Z,21.90
2016-10-01T01:32:12.182Z,21.90
2016-10-01T01:33:12.371Z,21.90
2016-10-01T01:34:13.146Z,21.90
2016-10-01T01:35:12.248Z,21.90
2016-10-01T01:36:12.435Z,21.90
2016-10-01T01:37:11.937Z,21.90
2016-10-01T01:38:09.575Z,21.90
2016-10-01T01:39:12.009Z,21.90
2016-10-01T01:40:13.061Z,21.90
2016-10-01T01:41:14.341Z,21.90
2016-10-01T01:42:13.616Z,21.90
2016-10-01T01:43:09.170Z,21.90
2016-10-01T01:44:13.951Z,21.90
2016-10-01T01:45:12.397Z,21.90
2016-10-01T01:46:11.923Z,21.90
2016-10-01T01:47:13.099Z,21.90
2016-10-01T01:48:12.040Z,21.90
2016-10-01T01:49:11.536Z,21.90
2016-10-01T01:50:10.476Z,21.90
2016-10-01T01:51:13.044Z,21.90
2016-10-01T01:52:11.276Z,21.90
2016-10-01T01:53:13.072Z,21.90
2016-10-01T01:54:12.375Z,21.90
2016-10-01T01:55:12.447Z,21.90
2016-10-01T01:56:12.936Z,21.90
2016-10-01T01:57:12.505Z,21.90
2016-10-01T01:58:10.301Z,21.90
2016-10-01T01:59:12.404Z,21.90
2016-10-01T02:00:11.846Z,21.90
2016-10-01T02:01:09.452Z,21.90
2016-10-01T02:02:13.810Z,21.90
2016-10-01T02:03:12.726Z,21.90
2016-10-01T02:04:12.039Z,21.90
2016-10-01T02:05:13.261Z,21.90
2016-10-01T02:06:12.287Z,21.90
2016-10-01T02:07:11.753Z,21.80
2016-10-01T02:08:12.889Z,21.90
2016-10-01T02:09:09.270Z,21.90
2016-10-01T02:10:11.411Z,21.80
2016-10-01T02:11:12.354Z,21.90
2016-10-01T02:12:12.219Z,21.90
2016-10-01T02:13:12.632Z,21.90
2016-10-01T02:14:12.896Z,21.90
2016-10-01T02:15:14.776Z,21.90
2016-10-01T02:16:11.971Z,21.80
2016-10-01T02:17:09.720Z,21.90
2016-10-01T02:18:13.550Z,21.90
2016-10-01T02:19:14.145Z,21.90
2016-10-01T02:20:12.115Z,21.90
2016-10-01T02:21:12.474Z,21.80
2016-10-01T02:22:12.574Z,21.90
2016-10-01T02:23:12.599Z,21.90
2016-10-01T02:24:11.915Z,21.90
2016-10-01T02:25:13.014Z,21.90
2016-10-01T02:26:12.296Z,21.90
2016-10-01T02:27:12.886Z,21.90
2016-10-01T02:28:14.005Z,21.90
2016-10-01T02:29:12.799Z,21.90
2016-10-01T02:30:12.741Z,21.80
2016-10-01T02:31:10.548Z,21.90
2016-10-01T02:32:13.125Z,21.80
2016-10-01T02:33:12.364Z,21.90
2016-10-01T02:34:14.360Z,21.80
2016-10-01T02:35:11.711Z,21.80
2016-10-01T02:36:13.511Z,21.90
2016-10-01T02:37:11.836Z,21.80
2016-10-01T02:38:12.037Z,21.80
2016-10-01T02:39:13.406Z,21.90
2016-10-01T02:40:11.741Z,21.80
2016-10-01T02:41:12.752Z,21.80
2016-10-01T02:42:12.221Z,21.80
2016-10-01T02:43:12.477Z,21.80
2016-10-01T02:44:13.491Z,21.80
2016-10-01T02:45:12.864Z,21.80
2016-10-01T02:46:13.114Z,21.80
2016-10-01T02:47:12.047Z,21.80
2016-10-01T02:48:13.240Z,21.80
2016-10-01T02:49:12.081Z,21.80
2016-10-01T02:50:12.290Z,21.80
2016-10-01T02:51:12.304Z,21.80
2016-10-01T02:52:12.856Z,21.80
2016-10-01T02:53:12.238Z,21.80
2016-10-01T02:54:09.986Z,21.80
2016-10-01T02:55:12.316Z,21.80
2016-10-01T02:56:12.112Z,21.80
2016-10-01T02:57:11.825Z,21.80
2016-10-01T02:58:13.385Z,21.80
2016-10-01T02:59:12.875Z,21.80
2016-10-01T03:00:12.871Z,21.80
2016-10-01T03:01:13.992Z,21.80
2016-10-01T03:02:15.021Z,21.80
2016-10-01T03:03:13.220Z,21.80
2016-10-01T03:04:11.921Z,21.80
2016-10-01T03:05:13.944Z,21.80
2016-10-01T03:06:13.178Z,21.80
2016-10-01T03:07:12.681Z,21.80
2016-10-01T03:08:13.496Z,21.80
2016-10-01T03:09:09.119Z,21.80
2016-10-01T03:10:11.870Z,21.80
2016-10-01T03:11:14.964Z,21.80
2016-10-01T03:12:12.874Z,21.80
2016-10-01T03:13:13.307Z,21.80
2016-10-01T03:14:09.502Z,21.80
2016-10-01T03:15:12.113Z,21.80
2016-10-01T03:16:09.375Z,21.80
2016-10-01T03:17:12.337Z,21.80
2016-10-01T03:18:12.629Z,21.80
2016-10-01T03:19:12.684Z,21.80
2016-10-01T03:20:12.156Z,21.80
2016-10-01T03:21:11.696Z,21.80
2016-10-01T03:22:12.130Z,21.80
2016-10-01T03:23:13.369Z,21.80
2016-10-01T03:24:12.523Z,21.80
2016-10-01T03:25:12.951Z,21.80
2016-10-01T03:26:12.275Z,21.80
2016-10-01T03:27:12.877Z,21.80
2016-10-01T03:28:11.648Z,21.80
2016-10-01T03:29:12.270Z,21.80
2016-10-01T03:30:12.234Z,21.80
2016-10-01T03:31:12.331Z,21.80
2016-10-01T03:32:12.603Z,21.80
2016-10-01T03:33:12.596Z,21.80
2016-10-01T03:34:12.464Z,21.80
2016-10-01T03:35:12.566Z,21.80
2016-10-01T03:36:12.445Z,21.80
2016-10-01T03:37:11.926Z,21.80
2016-10-01T03:38:13.453Z,21.80
2016-10-01T03:39:13.756Z,21.80
2016-10-01T03:40:12.263Z,21.80
2016-10-01T03:41:11.691Z,21.80
2016-10-01T03:42:12.643Z,21.80
2016-10-01T03:43:13.848Z,21.80
2016-10-01T03:44:12.690Z,21.80
2016-10-01T03:45:12.550Z,21.80
2016-10-01T03:46:12.172Z,21.80
2016-10-01T03:47:12.327Z,21.80
2016-10-01T03:48:12.857Z,21.80
2016-10-01T03:49:12.222Z,21.80
2016-10-01T03:50:12.375Z,21.80
2016-10-01T03:51:11.853Z,21.80
2016-10-01T03:52:12.185Z,21.80
2016-10-01T03:53:13.224Z,21.80
2016-10-01T03:54:11.805Z,21.80
2016-10-01T03:55:12.462Z,21.80
2016-10-01T03:56:12.711Z,21.80
2016-10-01T03:57:09.343Z,21.80
2016-10-01T03:58:08.901Z,21.80
2016-10-01T03:59:12.241Z,21.80
2016-10-01T04:00:11.792Z,21.80
2016-10-01T04:01:12.332Z,21.80
2016-10-01T04:02:09.459Z,21.80
2016-10-01T04:03:12.117Z,21.80
2016-10-01T04:04:12.248Z,21.80
2016-10-01T04:05:10.250Z,21.80
2016-10-01T04:06:12.484Z,21.80
2016-10-01T04:07:11.841Z,21.80
2016-10-01T04:08:12.568Z,21.80
2016-10-01T04:09:12.492Z,21.80
2016-10-01T04:10:13.772Z,21.80
2016-10-01T04:11:14.084Z,21.80
2016-10-01T04:12:11.888Z,21.80
2016-10-01T04:13:11.530Z,21.80
2016-10-01T04:14:10.507Z,21.80
2016-10-01T04:15:13.998Z,21.80
2016-10-01T04:16:15.100Z,21.80
2016-10-01T04:17:09.317Z,21.80
2016-10-01T04:18:12.358Z,21.80
2016-10-01T04:19:11.728Z,21.80
2016-10-01T04:20:13.125Z,21.80
2016-10-01T04:21:12.650Z,21.80
2016-10-01T04:22:12.821Z,21.80
2016-10-01T04:23:11.754Z,21.80
2016-10-01T04:24:12.159Z,21.80
2016-10-01T04:25:15.981Z,21.80
2016-10-01T04:26:12.097Z,21.80
2016-10-01T04:27:13.448Z,21.80
2016-10-01T04:28:12.609Z,21.80
2016-10-01T04:29:12.016Z,21.80
2016-10-01T04:30:11.543Z,21.80
2016-10-01T04:31:13.167Z,21.80
2016-10-01T04:32:16.413Z,21.80
2016-10-01T04:33:12.020Z,21.80
2016-10-01T04:34:12.045Z,21.80
2016-10-01T04:35:11.546Z,21.80
2016-10-01T04:36:12.516Z,21.80
2016-10-01T04:37:12.524Z,21.80
2016-10-01T04:38:13.637Z,21.80
2016-10-01T04:39:12.881Z,21.80
2016-10-01T04:40:12.984Z,21.80
2016-10-01T04:41:12.934Z,21.80
2016-10-01T04:42:12.560Z,21.80
2016-10-01T04:43:10.552Z,21.80
2016-10-01T04:44:12.949Z,21.80
2016-10-01T04:45:12.261Z,21.80
2016-10-01T04:46:12.410Z,21.80
2016-10-01T04:47:11.774Z,21.80
2016-10-01T04:48:09.301Z,21.80
2016-10-01T04:49:12.170Z,21.80
2016-10-01T04:50:11.567Z,21.80
2016-10-01T04:51:12.599Z,21.80
2016-10-01T04:52:12.186Z,21.80
2016-10-01T04:53:11.831Z,21.80
2016-10-01T04:54:10.112Z,21.80
2016-10-01T04:55:11.757Z,21.70
2016-10-01T04:56:12.272Z,21.80
2016-10-01T04:57:12.426Z,21.80
2016-10-01T04:58:13.135Z,21.80
2016-10-01T04:59:11.962Z,21.70
2016-10-01T05:00:12.168Z,21.80
2016-10-01T05:01:12.263Z,21.70
2016-10-01T05:02:11.729Z,21.70
2016-10-01T05:03:12.136Z,21.80
2016-10-01T05:04:13.462Z,21.70
2016-10-01T05:05:12.270Z,21.80
2016-10-01T05:06:11.814Z,21.80
2016-10-01T05:07:12.761Z,21.80
2016-10-01T05:08:13.249Z,21.70
2016-10-01T05:09:12.400Z,21.70
2016-10-01T05:10:13.772Z,21.70
2016-10-01T05:11:11.744Z,21.70
2016-10-01T05:12:12.085Z,21.70
2016-10-01T05:13:12.153Z,21.70
2016-10-01T05:14:12.896Z,21.70
2016-10-01T05:15:12.360Z,21.70
2016-10-01T05:16:11.651Z,21.70
2016-10-01T05:17:13.299Z,21.80
2016-10-01T05:18:12.168Z,21.70
2016-10-01T05:19:11.648Z,21.70
2016-10-01T05:20:12.206Z,21.70
2016-10-01T05:21:12.526Z,21.70
2016-10-01T05:22:11.947Z,21.70
2016-10-01T05:23:12.189Z,21.70
2016-10-01T05:24:11.943Z,21.70
2016-10-01T05:25:13.172Z,21.80
2016-10-01T05:26:11.563Z,21.70
2016-10-01T05:27:13.761Z,21.70
2016-10-01T05:28:10.061Z,21.70
2016-10-01T05:29:08.854Z,21.70
2016-10-01T05:30:12.374Z,21.70
2016-10-01T05:31:12.916Z,21.70
2016-10-01T05:32:12.226Z,21.70
2016-10-01T05:33:12.279Z,21.70
2016-10-01T05:34:12.778Z,21.70
2016-10-01T05:35:12.293Z,21.70
2016-10-01T05:36:11.814Z,21.70
2016-10-01T05:37:13.123Z,21.70
2016-10-01T05:38:11.616Z,21.70
2016-10-01T05:39:12.624Z,21.70
2016-10-01T05:40:12.134Z,21.70
2016-10-01T05:41:11.465Z,21.70
2016-10-01T05:42:13.100Z,21.70
2016-10-01T05:43:12.044Z,21.70
2016-10-01T05:44:12.024Z,21.70
2016-10-01T05:45:12.125Z,21.70
2016-10-01T05:46:12.410Z,21.70
2016-10-01T05:47:13.042Z,21.70
2016-10-01T05:48:13.082Z,21.70
2016-10-01T05:49:11.562Z,21.70
2016-10-01T05:50:12.930Z,21.70
2016-10-01T05:51:12.861Z,21.70
2016-10-01T05:52:12.182Z,21.70
2016-10-01T05:53:12.173Z,21.70
2016-10-01T05:54:12.124Z,21.70
2016-10-01T05:55:12.077Z,21.70
2016-10-01T05:56:11.511Z,21.70
2016-10-01T05:57:13.294Z,21.70
2016-10-01T05:58:11.826Z,21.70
2016-10-01T05:59:12.184Z,21.70
2016-10-01T06:00:12.356Z,21.70
2016-10-01T06:01:12.390Z,21.70
2016-10-01T06:02:13.681Z,21.70
2016-10-01T06:03:09.323Z,21.70
2016-10-01T06:04:12.342Z,21.70
2016-10-01T06:05:11.931Z,21.70
2016-10-01T06:06:13.907Z,21.70
2016-10-01T06:07:12.409Z,21.70
2016-10-01T06:08:13.544Z,21.70
2016-10-01T06:09:13.397Z,21.70
2016-10-01T06:10:12.110Z,21.70
2016-10-01T06:11:11.689Z,21.70
2016-10-01T06:12:12.903Z,21.70
2016-10-01T06:13:12.636Z,21.70
2016-10-01T06:14:12.361Z,21.70
2016-10-01T06:15:11.751Z,21.70
2016-10-01T06:16:13.550Z,21.70
2016-10-01T06:17:12.106Z,21.70
2016-10-01T06:18:10.423Z,21.70
2016-10-01T06:19:12.272Z,21.70
2016-10-01T06:20:12.322Z,21.70
2016-10-01T06:21:12.351Z,21.70
2016-10-01T06:22:13.387Z,21.70
2016-10-01T06:23:11.845Z,21.70
2016-10-01T06:24:12.273Z,21.70
2016-10-01T06:25:12.258Z,21.70
2016-10-01T06:26:12.882Z,21.30
2016-10-01T06:27:12.270Z,21.10
2016-10-01T06:28:13.379Z,20.80
2016-10-01T06:29:11.818Z,20.50
2016-10-01T06:30:13.790Z,20.40
2016-10-01T06:31:09.397Z,20.20
2016-10-01T06:32:12.810Z,20.00
2016-10-01T06:33:12.314Z,19.90
2016-10-01T06:34:12.441Z,19.90
2016-10-01T06:35:12.470Z,19.90
2016-10-01T06:36:12.534Z,20.00
2016-10-01T06:37:12.532Z,20.10
2016-10-01T06:38:12.083Z,20.30
2016-10-01T06:39:12.282Z,20.40
2016-10-01T06:40:12.592Z,20.50
2016-10-01T06:41:12.160Z,20.60
2016-10-01T06:42:13.229Z,20.70
2016-10-01T06:43:11.921Z,20.70
2016-10-01T06:44:12.117Z,20.80
2016-10-01T06:45:14.375Z,20.90
2016-10-01T06:46:12.361Z,20.90
2016-10-01T06:47:12.888Z,21.00
2016-10-01T06:48:12.928Z,21.00
2016-10-01T06:49:12.253Z,21.10
2016-10-01T06:50:11.770Z,21.10
2016-10-01T06:51:12.339Z,21.10
2016-10-01T06:52:12.282Z,21.20
2016-10-01T06:53:12.156Z,21.20
2016-10-01T06:54:11.671Z,21.20
2016-10-01T06:55:12.851Z,21.20
2016-10-01T06:56:12.175Z,21.20
2016-10-01T06:57:12.224Z,21.30
2016-10-01T06:58:12.192Z,21.30
2016-10-01T06:59:11.795Z,21.30
2016-10-01T07:00:15.262Z,21.30
2016-10-01T07:01:09.144Z,21.30
2016-10-01T07:02:10.745Z,21.40
2016-10-01T07:03:13.377Z,21.40
2016-10-01T07:04:12.304Z,21.40
2016-10-01T07:05:09.612Z,21.40
2016-10-01T07:06:11.453Z,21.40
2016-10-01T07:07:09.654Z,21.40
2016-10-01T07:08:16.115Z,21.40
2016-10-01T07:09:09.202Z,21.40
2016-10-01T07:10:13.646Z,21.50
2016-10-01T07:11:12.648Z,21.50
2016-10-01T07:12:13.058Z,21.50
2016-10-01T07:13:12.910Z,21.50
2016-10-01T07:14:12.497Z,21.50
2016-10-01T07:15:13.509Z,21.50
2016-10-01T07:16:11.847Z,21.50
2016-10-01T07:17:14.067Z,21.50
2016-10-01T07:18:13.518Z,21.50
2016-10-01T07:19:12.358Z,21.50
2016-10-01T07:20:09.229Z,21.60
2016-10-01T07:21:11.720Z,21.50
2016-10-01T07:22:09.389Z,21.60
2016-10-01T07:23:12.161Z,21.60
2016-10-01T07:24:12.162Z,21.60
2016-10-01T07:25:12.113Z,21.60
2016-10-01T07:26:13.496Z,21.60
2016-10-01T07:27:12.531Z,21.60
2016-10-01T07:28:09.340Z,21.60
2016-10-01T07:29:13.395Z,21.60
2016-10-01T07:30:11.797Z,21.60
2016-10-01T07:31:11.967Z,21.60
2016-10-01T07:32:11.675Z,21.60
2016-10-01T07:33:12.284Z,21.60
2016-10-01T07:34:11.884Z,21.60
2016-10-01T07:35:13.086Z,21.60
2016-10-01T07:36:12.121Z,21.60
2016-10-01T07:37:11.540Z,21.60
2016-10-01T07:38:12.730Z,21.70
2016-10-01T07:39:12.053Z,21.70
2016-10-01T07:40:12.255Z,21.70
2016-10-01T07:41:13.505Z,21.70
2016-10-01T07:42:12.118Z,21.60
2016-10-01T07:43:12.298Z,21.40
2016-10-01T07:44:10.320Z,21.30
2016-10-01T07:45:09.079Z,21.00
2016-10-01T07:46:12.352Z,20.80
2016-10-01T07:47:11.765Z,20.70
2016-10-01T07:48:12.980Z,20.60
2016-10-01T07:49:12.453Z,20.50
2016-10-01T07:50:12.517Z,20.40
2016-10-01T07:51:12.627Z,20.40
2016-10-01T07:52:13.634Z,20.40
2016-10-01T07:53:12.754Z,20.30
2016-10-01T07:54:13.124Z,20.30
2016-10-01T07:55:12.292Z,20.20
2016-10-01T07:56:14.645Z,20.10
2016-10-01T07:57:12.003Z,20.00
2016-10-01T07:58:12.568Z,20.00
2016-10-01T07:59:11.905Z,19.90
2016-10-01T08:00:14.233Z,19.90
2016-10-01T08:01:11.535Z,19.90
2016-10-01T08:02:12.516Z,19.80
2016-10-01T08:03:12.540Z,19.80
2016-10-01T08:04:12.081Z,19.70
2016-10-01T08:05:12.338Z,19.70
2016-10-01T08:06:12.958Z,19.70
2016-10-01T08:07:13.153Z,19.70
2016-10-01T08:08:11.785Z,19.60
2016-10-01T08:09:12.191Z,19.60
2016-10-01T08:10:11.708Z,19.70
2016-10-01T08:11:12.113Z,19.70
2016-10-01T08:12:11.634Z,19.70
2016-10-01T08:13:12.352Z,19.70
2016-10-01T08:14:11.890Z,19.70
2016-10-01T08:15:12.180Z,19.70
2016-10-01T08:16:13.468Z,19.70
2016-10-01T08:17:12.371Z,19.80
2016-10-01T08:18:12.917Z,19.80
2016-10-01T08:19:12.272Z,19.80
2016-10-01T08:20:12.748Z,19.80
2016-10-01T08:21:12.192Z,19.80
2016-10-01T08:22:12.495Z,19.80
2016-10-01T08:23:12.611Z,19.80
2016-10-01T08:24:13.621Z,19.80
2016-10-01T08:25:13.831Z,19.80
2016-10-01T08:26:13.181Z,19.80
2016-10-01T08:27:12.835Z,19.70
2016-10-01T08:28:11.462Z,19.80
2016-10-01T08:29:12.536Z,19.80
2016-10-01T08:30:12.504Z,19.80
2016-10-01T08:31:12.127Z,19.80
2016-10-01T08:32:11.482Z,19.80
2016-10-01T08:33:11.883Z,19.80
2016-10-01T08:34:12.321Z,19.70
2016-10-01T08:35:12.202Z,19.70
2016-10-01T08:36:11.927Z,19.70
2016-10-01T08:37:08.784Z,19.70
2016-10-01T08:38:12.267Z,19.70
2016-10-01T08:39:12.250Z,19.60
2016-10-01T08:40:11.713Z,19.70
2016-10-01T08:41:12.167Z,19.70
2016-10-01T08:42:12.471Z,19.70
2016-10-01T08:43:13.516Z,19.80
2016-10-01T08:44:11.922Z,19.70
2016-10-01T08:45:11.915Z,19.70
2016-10-01T08:46:13.139Z,19.80
2016-10-01T08:47:11.767Z,19.80
2016-10-01T08:48:12.414Z,19.80
2016-10-01T08:49:12.574Z,19.90
2016-10-01T08:50:12.638Z,20.00
2016-10-01T08:51:12.023Z,20.10
2016-10-01T08:52:12.178Z,20.20
2016-10-01T08:53:14.341Z,20.30
2016-10-01T08:54:11.664Z,20.30
2016-10-01T08:55:12.142Z,20.30
2016-10-01T08:56:12.257Z,20.30
2016-10-01T08:57:12.273Z,20.30
2016-10-01T08:58:11.944Z,20.20
2016-10-01T08:59:13.065Z,20.20
2016-10-01T09:00:11.585Z,20.20
2016-10-01T09:01:12.473Z,20.20
2016-10-01T09:02:12.459Z,20.10
2016-10-01T09:03:12.362Z,20.20
2016-10-01T09:04:12.085Z,20.20
2016-10-01T09:05:12.045Z,20.10
2016-10-01T09:06:12.123Z,20.10
2016-10-01T09:07:11.689Z,20.10
2016-10-01T09:08:12.203Z,20.20
2016-10-01T09:09:12.123Z,20.10
2016-10-01T09:10:11.783Z,20.10
2016-10-01T09:11:12.318Z,20.20
2016-10-01T09:12:12.455Z,20.20
2016-10-01T09:13:10.433Z,20.20
2016-10-01T09:14:09.346Z,20.20
2016-10-01T09:15:12.236Z,20.30
2016-10-01T09:16:12.198Z,20.30
2016-10-01T09:17:13.223Z,20.30
2016-10-01T09:18:11.672Z,20.30
2016-10-01T09:19:14.245Z,20.30
2016-10-01T09:20:12.219Z,20.30
2016-10-01T09:21:13.300Z,20.30
2016-10-01T09:22:12.582Z,20.30
2016-10-01T09:23:12.100Z,20.30
2016-10-01T09:24:12.401Z,20.30
2016-10-01T09:25:12.465Z,20.30
2016-10-01T09:26:11.889Z,20.30
2016-10-01T09:27:11.637Z,20.30
2016-10-01T09:28:12.261Z,20.30
2016-10-01T09:29:11.787Z,20.30
2016-10-01T09:30:12.260Z,20.30
2016-10-01T09:31:11.865Z,20.30
2016-10-01T09:32:12.458Z,20.30
2016-10-01T09:33:12.551Z,20.30
2016-10-01T09:34:12.970Z,20.30
2016-10-01T09:35:12.047Z,20.30
2016-10-01T09:36:11.419Z,20.30
2016-10-01T09:37:12.011Z,20.30
2016-10-01T09:38:12.302Z,20.40
2016-10-01T09:39:12.263Z,20.40
2016-10-01T09:40:12.298Z,20.50
2016-10-01T09:41:11.838Z,20.60
2016-10-01T09:42:12.881Z,20.60
2016-10-01T09:43:12.889Z,20.70
2016-10-01T09:44:14.927Z,20.70
2016-10-01T09:45:12.193Z,20.80
2016-10-01T09:46:12.100Z,20.90
2016-10-01T09:47:12.619Z,20.90
2016-10-01T09:48:12.873Z,20.90
2016-10-01T09:49:12.873Z,21.10
2016-10-01T09:50:12.927Z,21.40
2016-10-01T09:51:13.104Z,21.60
2016-10-01T09:52:11.998Z,21.60
2016-10-01T09:53:12.164Z,21.50
2016-10-01T09:54:11.714Z,21.50
2016-10-01T09:55:12.252Z,21.40
2016-10-01T09:56:11.795Z,21.40
2016-10-01T09:57:12.537Z,21.40
2016-10-01T09:58:12.769Z,21.30
2016-10-01T09:59:12.924Z,21.30
2016-10-01T10:00:10.076Z,21.30
2016-10-01T10:01:13.404Z,21.30
2016-10-01T10:02:12.696Z,21.30
2016-10-01T10:03:13.054Z,21.30
2016-10-01T10:04:12.181Z,21.30
2016-10-01T10:05:11.932Z,21.40
2016-10-01T10:06:12.847Z,21.40
2016-10-01T10:07:12.316Z,21.40
2016-10-01T10:08:12.784Z,21.40
2016-10-01T10:09:09.229Z,21.40
2016-10-01T10:10:12.593Z,21.30
2016-10-01T10:11:09.332Z,21.40
2016-10-01T10:12:13.475Z,21.40
2016-10-01T10:13:12.745Z,21.40
2016-10-01T10:14:09.896Z,21.40
2016-10-01T10:15:12.210Z,21.30
2016-10-01T10:16:13.621Z,21.30
2016-10-01T10:17:12.632Z,21.30
2016-10-01T10:18:13.407Z,21.30
2016-10-01T10:19:12.125Z,21.40
2016-10-01T10:20:11.516Z,21.40
2016-10-01T10:21:11.995Z,21.30
2016-10-01T10:22:12.030Z,21.30
2016-10-01T10:23:12.047Z,21.40
2016-10-01T10:24:14.239Z,21.40
2016-10-01T10:25:10.240Z,21.50
2016-10-01T10:26:09.051Z,21.50
2016-10-01T10:27:12.549Z,21.50
2016-10-01T10:28:12.213Z,21.50
2016-10-01T10:29:11.924Z,21.50
2016-10-01T10:30:12.462Z,21.50
2016-10-01T10:31:12.608Z,21.50
2016-10-01T10:32:12.671Z,21.50
2016-10-01T10:33:12.462Z,21.50
2016-10-01T10:34:14.641Z,21.50
2016-10-01T10:35:12.143Z,21.50
2016-10-01T10:36:13.462Z,21.50
2016-10-01T10:37:11.902Z,21.40
2016-10-01T10:38:12.403Z,21.40
2016-10-01T10:39:12.436Z,21.40
2016-10-01T10:40:12.003Z,21.40
2016-10-01T10:41:13.170Z,21.40
2016-10-01T10:42:11.595Z,21.40
2016-10-01T10:43:13.763Z,21.40
2016-10-01T10:44:12.749Z,21.40
2016-10-01T10:45:12.168Z,21.40
2016-10-01T10:46:14.375Z,21.40
2016-10-01T10:47:11.997Z,21.40
2016-10-01T10:48:10.270Z,21.40
2016-10-01T10:49:12.490Z,21.40
2016-10-01T10:50:08.946Z,21.40
2016-10-01T10:51:12.055Z,21.30
2016-10-01T10:52:11.581Z,21.40
2016-10-01T10:53:10.637Z,21.30
2016-10-01T10:54:12.869Z,21.30
2016-10-01T10:55:12.286Z,21.30
2016-10-01T10:56:12.456Z,21.30
2016-10-01T10:57:14.622Z,21.20
2016-10-01T10:58:12.827Z,21.20
2016-10-01T10:59:12.103Z,21.20
2016-10-01T11:00:12.059Z,21.20
2016-10-01T11:01:13.359Z,21.20
2016-10-01T11:02:12.454Z,21.20
2016-10-01T11:03:10.434Z,21.20
2016-10-01T11:04:09.246Z,21.20
2016-10-01T11:05:12.550Z,21.20
2016-10-01T11:06:12.607Z,21.30
2016-10-01T11:07:12.816Z,21.30
2016-10-01T11:08:12.410Z,21.30
2016-10-01T11:09:12.587Z,21.30
2016-10-01T11:10:12.040Z,21.30
2016-10-01T11:11:14.519Z,21.30
2016-10-01T11:12:13.277Z,21.30
2016-10-01T11:13:11.857Z,21.30
2016-10-01T11:14:11.805Z,21.30
2016-10-01T11:15:12.116Z,21.30
2016-10-01T11:16:11.556Z,21.30
2016-10-01T11:17:12.235Z,21.40
2016-10-01T11:18:12.294Z,21.40
2016-10-01T11:19:11.996Z,21.40
2016-10-01T11:20:12.150Z,21.40
2016-10-01T11:21:12.157Z,21.40
2016-10-01T11:22:13.121Z,21.40
2016-10-01T11:23:13.440Z,21.50
2016-10-01T11:24:13.293Z,21.50
2016-10-01T11:25:11.598Z,21.50
2016-10-01T11:26:12.301Z,21.50
2016-10-01T11:27:11.933Z,21.50
2016-10-01T11:28:12.486Z,21.50
2016-10-01T11:29:10.118Z,21.50
2016-10-01T11:30:11.801Z,21.50
2016-10-01T11:31:12.875Z,21.50
2016-10-01T11:32:09.262Z,21.50
2016-10-01T11:33:12.539Z,21.50
2016-10-01T11:34:12.603Z,21.50
2016-10-01T11:35:12.908Z,21.50
2016-10-01T11:36:12.677Z,21.50
2016-10-01T11:37:12.213Z,21.50
2016-10-01T11:38:11.676Z,21.50
2016-10-01T11:39:12.263Z,21.50
2016-10-01T11:40:12.261Z,21.60
2016-10-01T11:41:12.057Z,21.50
2016-10-01T11:42:12.190Z,21.60
2016-10-01T11:43:11.825Z,21.50
2016-10-01T11:44:12.317Z,21.60
2016-10-01T11:45:14.301Z,21.60
2016-10-01T11:46:08.739Z,21.60
2016-10-01T11:47:12.134Z,21.60
2016-10-01T11:48:12.173Z,21.60
2016-10-01T11:49:11.795Z,21.60
2016-10-01T11:50:12.795Z,21.60
2016-10-01T11:51:12.885Z,21.60
2016-10-01T11:52:12.301Z,21.60
2016-10-01T11:53:11.731Z,21.60
2016-10-01T11:54:12.650Z,21.60
2016-10-01T11:55:12.873Z,21.60
2016-10-01T11:56:12.917Z,21.60
2016-10-01T11:57:12.354Z,21.60
2016-10-01T11:58:14.614Z,21.60
2016-10-01T11:59:11.858Z,21.60
2016-10-01T12:00:13.984Z,21.60
2016-10-01T12:01:10.153Z,21.60
2016-10-01T12:02:12.623Z,21.60
2016-10-01T12:03:12.280Z,21.60
2016-10-01T12:04:12.056Z,21.60
2016-10-01T12:05:12.150Z,21.60
2016-10-01T12:06:12.205Z,21.70
2016-10-01T12:07:11.964Z,21.60
2016-10-01T12:08:13.953Z,21.60
2016-10-01T12:09:12.311Z,21.60
2016-10-01T12:10:13.992Z,21.70
2016-10-01T12:11:12.133Z,21.60
2016-10-01T12:12:15.647Z,21.70
2016-10-01T12:13:12.163Z,21.70
2016-10-01T12:14:11.822Z,21.70
2016-10-01T12:15:10.821Z,21.70
2016-10-01T12:16:12.096Z,21.70
2016-10-01T12:17:11.693Z,21.70
2016-10-01T12:18:12.272Z,21.70
2016-10-01T12:19:11.671Z,21.70
2016-10-01T12:20:13.031Z,21.70
2016-10-01T12:21:11.433Z,21.80
2016-10-01T12:22:12.025Z,21.80
2016-10-01T12:23:12.228Z,21.80
2016-10-01T12:24:12.025Z,21.80
2016-10-01T12:25:11.579Z,21.90
2016-10-01T12:26:10.590Z,21.90
2016-10-01T12:27:12.362Z,21.90
2016-10-01T12:28:13.461Z,21.90
2016-10-01T12:29:09.366Z,21.90
2016-10-01T12:30:12.756Z,21.90
2016-10-01T12:31:12.230Z,21.80
2016-10-01T12:32:12.511Z,21.80
2016-10-01T12:33:12.637Z,21.90
2016-10-01T12:34:15.942Z,21.80
2016-10-01T12:35:11.423Z,21.80
2016-10-01T12:36:12.206Z,21.80
2016-10-01T12:37:13.371Z,21.80
2016-10-01T12:38:12.431Z,21.90
2016-10-01T12:39:13.767Z,21.80
2016-10-01T12:40:12.126Z,21.80
2016-10-01T12:41:11.705Z,21.80
2016-10-01T12:42:12.306Z,21.80
2016-10-01T12:43:11.725Z,21.80
2016-10-01T12:44:12.277Z,21.80
2016-10-01T12:45:12.262Z,21.90
2016-10-01T12:46:12.152Z,21.80
2016-10-01T12:47:12.214Z,21.90
2016-10-01T12:48:12.203Z,21.90
2016-10-01T12:49:11.657Z,21.90
2016-10-01T12:50:12.871Z,21.90
2016-10-01T12:51:12.864Z,21.90
2016-10-01T12:52:13.146Z,21.90